createdAt,value
2017-12-29T00:00:04.203Z,87.63
2017-12-29T00:01:03.950Z,87.52
2017-12-29T00:02:03.856Z,87.54
2017-12-29T00:03:03.760Z,88.2
2017-12-29T00:04:03.682Z,88.38
2017-12-29T00:05:04.652Z,87.77
2017-12-29T00:06:03.673Z,87.88
2017-12-29T00:07:04.481Z,88.06
2017-12-29T00:08:04.422Z,87.61
2017-12-29T00:09:04.053Z,87.82
2017-12-29T00:10:03.902Z,87.72
2017-12-29T00:11:04.009Z,88.01
2017-12-29T00:12:04.129Z,88.19
2017-12-29T00:13:04.088Z,88.03
2017-12-29T00:14:04.040Z,88.23
2017-12-29T00:15:03.905Z,88.07
2017-12-29T00:16:03.878Z,88.15
2017-12-29T00:17:03.674Z,87.9
2017-12-29T00:18:04.569Z,88.14
2017-12-29T00:19:04.463Z,88.15
2017-12-29T00:20:04.152Z,88.01
2017-12-29T00:21:04.039Z,87.97
2017-12-29T00:22:04.075Z,87.69
2017-12-29T00:23:03.905Z,87.64
2017-12-29T00:24:03.903Z,88.04
2017-12-29T00:25:03.955Z,88.1
2017-12-29T00:26:04.018Z,88.32
2017-12-29T00:27:04.019Z,88
2017-12-29T00:28:04.025Z,88.26
2017-12-29T00:29:04.172Z,88.38
2017-12-29T00:30:03.958Z,88.16
2017-12-29T00:31:03.748Z,88.53
2017-12-29T00:32:03.604Z,88.56
2017-12-29T00:33:03.499Z,88.25
2017-12-29T00:34:04.345Z,87.95
2017-12-29T00:35:04.359Z,88.47
2017-12-29T00:36:04.257Z,88.54
2017-12-29T00:37:04.365Z,88.22
2017-12-29T00:38:04.098Z,88.13
2017-12-29T00:39:04.117Z,88.44
2017-12-29T00:40:04.047Z,88.51
2017-12-29T00:41:04.154Z,88.51
2017-12-29T00:42:04.226Z,88.14
2017-12-29T00:43:04.302Z,87.95
2017-12-29T00:44:04.270Z,87.74
2017-12-29T00:45:04.133Z,88.79
2017-12-29T00:46:03.954Z,88.62
2017-12-29T00:47:03.872Z,88.41
2017-12-29T00:48:03.732Z,88.26
2017-12-29T00:49:03.840Z,87.94
2017-12-29T00:50:03.888Z,88.58
2017-12-29T00:51:03.822Z,88.42
2017-12-29T00:52:04.639Z,88.34
2017-12-29T00:53:04.456Z,88.43
2017-12-29T00:54:04.323Z,88.53
2017-12-29T00:55:04.421Z,88.82
2017-12-29T00:56:04.337Z,88.22
2017-12-29T00:57:04.221Z,88.03
2017-12-29T00:58:04.012Z,88.14
2017-12-29T00:59:04.971Z,89.06
2017-12-29T01:00:04.513Z,88.83
2017-12-29T01:01:04.214Z,88.71
2017-12-29T01:02:04.257Z,88.71
2017-12-29T01:03:04.269Z,88.38
2017-12-29T01:04:04.220Z,88.84
2017-12-29T01:05:04.448Z,88.48
2017-12-29T01:06:04.492Z,89.6
2017-12-29T01:07:04.652Z,88.69
2017-12-29T01:08:04.672Z,88.56
2017-12-29T01:09:04.749Z,88.71
2017-12-29T01:10:04.612Z,88.59
2017-12-29T01:11:04.790Z,88.38
2017-12-29T01:12:03.981Z,88.83
2017-12-29T01:13:04.861Z,89.31
2017-12-29T01:14:03.991Z,89.17
2017-12-29T01:15:04.231Z,88.86
2017-12-29T01:16:04.242Z,89.04
2017-12-29T01:17:04.260Z,88.84
2017-12-29T01:18:04.433Z,89.35
2017-12-29T01:19:04.586Z,89.08
2017-12-29T01:20:04.357Z,88.82
2017-12-29T01:21:04.038Z,89.74
2017-12-29T01:22:04.119Z,89.06
2017-12-29T01:23:04.029Z,89.05
2017-12-29T01:24:04.162Z,89.04
2017-12-29T01:25:03.710Z,89.08
2017-12-29T01:26:03.889Z,88.91
2017-12-29T01:27:04.346Z,88.99
2017-12-29T01:28:04.422Z,89.04
2017-12-29T01:29:03.773Z,88.79
2017-12-29T01:30:03.792Z,88.9
2017-12-29T01:31:03.916Z,88.83
2017-12-29T01:32:03.889Z,89.16
2017-12-29T01:33:04.041Z,89.01
2017-12-29T01:34:03.979Z,89.03
2017-12-29T01:35:04.093Z,89.48
2017-12-29T01:36:03.567Z,89.53
2017-12-29T01:37:04.107Z,88.91
2017-12-29T01:38:03.726Z,89.58
2017-12-29T01:39:04.127Z,89.36
2017-12-29T01:40:04.215Z,89.45
2017-12-29T01:41:04.386Z,89.94
2017-12-29T01:42:04.286Z,90.3
2017-12-29T01:43:04.021Z,90.08
2017-12-29T01:44:03.554Z,90.2
2017-12-29T01:45:03.785Z,90.23
2017-12-29T01:46:04.029Z,89.78
2017-12-29T01:47:04.310Z,90.56
2017-12-29T01:48:04.373Z,90.45
2017-12-29T01:49:04.289Z,89.97
2017-12-29T01:50:04.417Z,90.61
2017-12-29T01:51:04.411Z,90.6
2017-12-29T01:52:04.143Z,91.09
2017-12-29T01:53:03.953Z,90.17
2017-12-29T01:54:03.744Z,90.94
2017-12-29T01:55:03.696Z,90.87
2017-12-29T01:56:03.842Z,90.4
2017-12-29T01:57:03.422Z,90.54
2017-12-29T01:58:03.510Z,90.36
2017-12-29T01:59:04.356Z,91.08
2017-12-29T02:00:03.972Z,90.07
2017-12-29T02:01:04.136Z,90.07
2017-12-29T02:02:04.073Z,90.29
2017-12-29T02:03:03.985Z,89.97
2017-12-29T02:04:03.492Z,90.2
2017-12-29T02:05:03.587Z,90.52
2017-12-29T02:06:03.619Z,90.25
2017-12-29T02:07:03.545Z,90.24
2017-12-29T02:08:03.653Z,90.06
2017-12-29T02:09:03.592Z,90.4
2017-12-29T02:10:03.453Z,90.07
2017-12-29T02:11:04.370Z,90.08
2017-12-29T02:12:04.292Z,89.62
2017-12-29T02:13:04.366Z,89.9
2017-12-29T02:14:03.511Z,89.9
2017-12-29T02:15:03.439Z,89.63
2017-12-29T02:16:04.368Z,90.01
2017-12-29T02:17:04.397Z,89.67
2017-12-29T02:18:04.300Z,90.09
2017-12-29T02:19:04.253Z,89.91
2017-12-29T02:20:04.257Z,90.27
2017-12-29T02:21:04.301Z,90.11
2017-12-29T02:22:04.387Z,90.13
2017-12-29T02:23:03.535Z,91.36
2017-12-29T02:24:03.578Z,90.65
2017-12-29T02:25:03.632Z,90.13
2017-12-29T02:26:03.540Z,90.06
2017-12-29T02:27:03.648Z,90.69
2017-12-29T02:28:03.682Z,90.25
2017-12-29T02:29:03.696Z,90.11
2017-12-29T02:30:03.552Z,89.84
2017-12-29T02:31:03.720Z,90.89
2017-12-29T02:32:03.616Z,90.38
2017-12-29T02:33:03.572Z,89.94
2017-12-29T02:34:03.419Z,90.11
2017-12-29T02:35:03.418Z,90.18
2017-12-29T02:36:03.448Z,90.25
2017-12-29T02:37:04.247Z,89.92
2017-12-29T02:38:04.146Z,90.14
2017-12-29T02:39:04.188Z,89.92
2017-12-29T02:40:04.168Z,90.43
2017-12-29T02:41:03.962Z,90.02
2017-12-29T02:42:03.992Z,90.22
2017-12-29T02:43:03.841Z,90.06
2017-12-29T02:44:03.963Z,90.3
2017-12-29T02:45:03.988Z,90.19
2017-12-29T02:46:04.125Z,90.06
2017-12-29T02:47:04.167Z,89.98
2017-12-29T02:48:04.131Z,89.86
2017-12-29T02:49:03.967Z,90.38
2017-12-29T02:50:04.013Z,89.89
2017-12-29T02:51:04.100Z,90.11
2017-12-29T02:52:04.085Z,90.74
2017-12-29T02:53:04.014Z,90.26
2017-12-29T02:54:04.146Z,90.37
2017-12-29T02:55:04.127Z,90.32
2017-12-29T02:56:04.111Z,90.3
2017-12-29T02:57:05.264Z,90.54
2017-12-29T02:58:04.410Z,90.64
2017-12-29T02:59:04.387Z,90.21
2017-12-29T03:00:04.251Z,90.47
2017-12-29T03:01:04.012Z,90.23
2017-12-29T03:02:04.176Z,90.69
2017-12-29T03:03:04.175Z,90.94
2017-12-29T03:04:04.243Z,90.31
2017-12-29T03:05:04.328Z,89.95
2017-12-29T03:06:04.305Z,89.94
2017-12-29T03:07:04.231Z,90.09
2017-12-29T03:08:04.298Z,90.52
2017-12-29T03:09:04.571Z,90.22
2017-12-29T03:10:04.562Z,90.24
2017-12-29T03:11:04.501Z,90.22
2017-12-29T03:12:04.417Z,90.2
2017-12-29T03:13:04.365Z,90.12
2017-12-29T03:14:04.382Z,90.25
2017-12-29T03:15:04.403Z,90.4
2017-12-29T03:16:04.394Z,89.99
2017-12-29T03:17:04.447Z,90.67
2017-12-29T03:18:04.516Z,90.38
2017-12-29T03:19:04.477Z,90.23
2017-12-29T03:20:04.672Z,90.11
2017-12-29T03:21:04.576Z,90.21
2017-12-29T03:22:04.652Z,90.29
2017-12-29T03:23:04.654Z,90.36
2017-12-29T03:24:04.543Z,90.28
2017-12-29T03:25:04.363Z,90.23
2017-12-29T03:26:04.628Z,90.46
2017-12-29T03:27:04.331Z,90.19
2017-12-29T03:28:04.273Z,90.32
2017-12-29T03:29:04.136Z,90.28
2017-12-29T03:30:04.095Z,90.09
2017-12-29T03:31:04.028Z,89.83
2017-12-29T03:32:03.873Z,90.33
2017-12-29T03:33:03.786Z,90.09
2017-12-29T03:34:03.648Z,89.92
2017-12-29T03:35:03.726Z,90.05
2017-12-29T03:36:03.714Z,90.48
2017-12-29T03:37:03.863Z,90.29
2017-12-29T03:38:03.997Z,90.39
2017-12-29T03:39:03.947Z,90.88
2017-12-29T03:40:03.922Z,90.07
2017-12-29T03:41:03.675Z,90.23
2017-12-29T03:42:04.617Z,90.14
2017-12-29T03:43:04.564Z,90.08
2017-12-29T03:44:04.444Z,91.01
2017-12-29T03:45:04.228Z,90.27
2017-12-29T03:46:04.080Z,91.04
2017-12-29T03:47:03.817Z,90.46
2017-12-29T03:48:03.742Z,90.48
2017-12-29T03:49:03.738Z,90.22
2017-12-29T03:50:04.583Z,89.92
2017-12-29T03:51:04.472Z,89.93
2017-12-29T03:52:04.341Z,89.9
2017-12-29T03:53:04.316Z,89.86
2017-12-29T03:54:04.339Z,90.3
2017-12-29T03:55:04.319Z,90.21
2017-12-29T03:56:03.412Z,89.84
2017-12-29T03:57:04.225Z,90.13
2017-12-29T03:58:04.161Z,89.99
2017-12-29T03:59:04.216Z,89.75
2017-12-29T04:00:04.262Z,90.11
2017-12-29T04:01:04.120Z,89.57
2017-12-29T04:02:04.067Z,89.6
2017-12-29T04:03:04.111Z,89.89
2017-12-29T04:04:04.140Z,89.62
2017-12-29T04:05:04.046Z,89.6
2017-12-29T04:06:03.948Z,89.65
2017-12-29T04:07:04.013Z,89.71
2017-12-29T04:08:03.978Z,89.48
2017-12-29T04:09:03.876Z,89.36
2017-12-29T04:10:03.781Z,89.73
2017-12-29T04:11:03.903Z,90.01
2017-12-29T04:12:04.022Z,90.59
2017-12-29T04:13:03.897Z,90.21
2017-12-29T04:14:03.858Z,89.96
2017-12-29T04:15:03.535Z,89.66
2017-12-29T04:16:03.617Z,89.58
2017-12-29T04:17:03.575Z,89.76
2017-12-29T04:18:03.635Z,89.77
2017-12-29T04:19:03.588Z,89.54
2017-12-29T04:20:03.610Z,89.72
2017-12-29T04:21:03.449Z,89.58
2017-12-29T04:22:03.457Z,90.07
2017-12-29T04:23:03.397Z,90.27
2017-12-29T04:24:04.264Z,89.98
2017-12-29T04:25:03.309Z,89.74
2017-12-29T04:26:03.993Z,90.18
2017-12-29T04:27:03.863Z,89.57
2017-12-29T04:28:03.653Z,89.97
2017-12-29T04:29:03.858Z,89.87
2017-12-29T04:30:03.636Z,90.24
2017-12-29T04:31:03.564Z,90.59
2017-12-29T04:32:04.230Z,90.04
2017-12-29T04:33:04.172Z,89.91
2017-12-29T04:34:04.499Z,89.55
2017-12-29T04:35:03.607Z,89.72
2017-12-29T04:36:03.545Z,89.69
2017-12-29T04:37:03.344Z,89.89
2017-12-29T04:38:04.100Z,89.81
2017-12-29T04:39:03.938Z,89.72
2017-12-29T04:40:03.847Z,89.85
2017-12-29T04:41:03.764Z,90.35
2017-12-29T04:42:03.568Z,90.26
2017-12-29T04:43:03.591Z,90.58
2017-12-29T04:44:03.445Z,90.38
2017-12-29T04:45:03.414Z,90.71
2017-12-29T04:46:03.428Z,89.91
2017-12-29T04:47:03.363Z,90.75
2017-12-29T04:48:04.224Z,90.8
2017-12-29T04:49:03.394Z,90.27
2017-12-29T04:50:03.414Z,90.05
2017-12-29T04:51:03.524Z,90.64
2017-12-29T04:52:04.184Z,90.08
2017-12-29T04:53:04.151Z,90.79
2017-12-29T04:54:04.247Z,90.25
2017-12-29T04:55:04.396Z,90.18
2017-12-29T04:56:03.416Z,90.51
2017-12-29T04:57:04.128Z,90.11
2017-12-29T04:58:03.975Z,90.24
2017-12-29T04:59:03.640Z,90.42
2017-12-29T05:00:03.437Z,90.12
2017-12-29T05:01:03.499Z,89.85
2017-12-29T05:02:03.585Z,89.73
2017-12-29T05:03:03.507Z,90.02
2017-12-29T05:04:03.413Z,89.73
2017-12-29T05:05:04.288Z,89.48
2017-12-29T05:06:04.292Z,89.59
2017-12-29T05:07:04.235Z,89.56
2017-12-29T05:08:04.224Z,89.74
2017-12-29T05:09:03.974Z,89.4
2017-12-29T05:10:04.031Z,89.42
2017-12-29T05:11:04.057Z,89.39
2017-12-29T05:12:03.846Z,89.21
2017-12-29T05:13:03.849Z,89.18
2017-12-29T05:14:03.962Z,89.08
2017-12-29T05:15:03.868Z,89
2017-12-29T05:16:03.849Z,88.87
2017-12-29T05:17:03.692Z,88.96
2017-12-29T05:18:03.898Z,89
2017-12-29T05:19:03.857Z,88.71
2017-12-29T05:20:03.915Z,88.97
2017-12-29T05:21:03.748Z,88.75
2017-12-29T05:22:03.938Z,88.92
2017-12-29T05:23:03.959Z,88.88
2017-12-29T05:24:03.774Z,88.73
2017-12-29T05:25:03.606Z,88.67
2017-12-29T05:26:03.714Z,88.45
2017-12-29T05:27:04.127Z,88.69
2017-12-29T05:28:03.986Z,88.49
2017-12-29T05:29:03.783Z,88.56
2017-12-29T05:30:03.685Z,88.54
2017-12-29T05:31:03.371Z,88.6
2017-12-29T05:32:04.163Z,88.43
2017-12-29T05:33:04.106Z,88.5
2017-12-29T05:34:04.083Z,88.43
2017-12-29T05:35:04.082Z,88.44
2017-12-29T05:36:03.868Z,88.39
2017-12-29T05:37:03.788Z,88.43
2017-12-29T05:38:03.673Z,88.48
2017-12-29T05:39:03.807Z,88.15
2017-12-29T05:40:03.840Z,88.28
2017-12-29T05:41:03.790Z,88.25
2017-12-29T05:42:03.943Z,88.29
2017-12-29T05:43:04.186Z,88.4
2017-12-29T05:44:04.111Z,88.32
2017-12-29T05:45:04.423Z,88.58
2017-12-29T05:46:04.077Z,88.3
2017-12-29T05:47:03.879Z,88.17
2017-12-29T05:48:03.840Z,88.19
2017-12-29T05:49:04.016Z,88.13
2017-12-29T05:50:04.000Z,88.15
2017-12-29T05:51:04.063Z,88.07
2017-12-29T05:52:04.040Z,88.19
2017-12-29T05:53:04.185Z,88
2017-12-29T05:54:04.144Z,88.06
2017-12-29T05:55:04.155Z,87.95
2017-12-29T05:56:04.209Z,87.78
2017-12-29T05:57:04.276Z,87.62
2017-12-29T05:58:05.081Z,87.66
2017-12-29T05:59:04.208Z,87.73
2017-12-29T06:00:04.255Z,87.88
2017-12-29T06:01:04.986Z,87.47
2017-12-29T06:02:04.872Z,87.6
2017-12-29T06:03:04.594Z,87.57
2017-12-29T06:04:04.476Z,87.69
2017-12-29T06:05:04.437Z,87.52
2017-12-29T06:06:04.384Z,87.37
2017-12-29T06:07:04.274Z,87.3
2017-12-29T06:08:04.352Z,87.47
2017-12-29T06:09:04.256Z,87.51
2017-12-29T06:10:04.209Z,87.35
2017-12-29T06:11:05.101Z,87.44
2017-12-29T06:12:04.211Z,87.48
2017-12-29T06:13:05.084Z,87.45
2017-12-29T06:14:05.004Z,87.3
2017-12-29T06:15:04.911Z,87.43
2017-12-29T06:16:04.832Z,87.4
2017-12-29T06:17:05.235Z,87.39
2017-12-29T06:18:04.302Z,87.38
2017-12-29T06:19:04.287Z,87.46
2017-12-29T06:20:04.402Z,87.43
2017-12-29T06:21:04.355Z,87.53
2017-12-29T06:22:04.442Z,87.39
2017-12-29T06:23:04.569Z,87.45
2017-12-29T06:24:04.613Z,87.45
2017-12-29T06:25:04.575Z,87.26
2017-12-29T06:26:04.396Z,87.25
2017-12-29T06:27:04.058Z,87.3
2017-12-29T06:28:03.963Z,87.33
2017-12-29T06:29:04.078Z,87.16
2017-12-29T06:30:04.116Z,87.35
2017-12-29T06:31:04.108Z,87.45
2017-12-29T06:32:03.960Z,87.28
2017-12-29T06:33:03.825Z,87.39
2017-12-29T06:34:03.743Z,87.31
2017-12-29T06:35:04.000Z,87.51
2017-12-29T06:36:04.056Z,87.5
2017-12-29T06:37:04.001Z,87.42
2017-12-29T06:38:03.988Z,86.76
2017-12-29T06:39:03.952Z,86.93
2017-12-29T06:40:04.130Z,87.09
2017-12-29T06:41:04.050Z,86.84
2017-12-29T06:42:03.821Z,86.74
2017-12-29T06:43:03.783Z,86.85
2017-12-29T06:44:03.645Z,86.92
2017-12-29T06:45:03.575Z,86.98
2017-12-29T06:46:03.605Z,86.87
2017-12-29T06:47:03.482Z,86.8
2017-12-29T06:48:03.398Z,86.89
2017-12-29T06:49:04.361Z,86.93
2017-12-29T06:50:03.436Z,86.54
2017-12-29T06:51:03.399Z,86.48
2017-12-29T06:52:03.418Z,86.77
2017-12-29T06:53:04.396Z,86.53
2017-12-29T06:54:03.632Z,86.32
2017-12-29T06:55:03.733Z,86.35
2017-12-29T06:56:03.907Z,86.36
2017-12-29T06:57:03.906Z,86.27
2017-12-29T06:58:04.859Z,86.13
2017-12-29T06:59:04.004Z,86.41
2017-12-29T07:00:04.767Z,86.41
2017-12-29T07:01:04.775Z,86.49
2017-12-29T07:02:04.808Z,86.47
2017-12-29T07:03:04.837Z,86.51
2017-12-29T07:04:04.680Z,86.39
2017-12-29T07:05:04.890Z,86.17
2017-12-29T07:06:04.877Z,86.36
2017-12-29T07:07:03.894Z,86.26
2017-12-29T07:08:04.909Z,86.28
2017-12-29T07:09:03.891Z,86.19
2017-12-29T07:10:04.819Z,86.47
2017-12-29T07:11:04.061Z,86.14
2017-12-29T07:12:04.012Z,86.22
2017-12-29T07:13:03.961Z,86.1
2017-12-29T07:14:03.891Z,86.14
2017-12-29T07:15:03.950Z,85.96
2017-12-29T07:16:04.892Z,86.1
2017-12-29T07:17:03.994Z,85.9
2017-12-29T07:18:03.947Z,86.14
2017-12-29T07:19:04.850Z,86.08
2017-12-29T07:20:04.802Z,86.14
2017-12-29T07:21:04.662Z,86.03
2017-12-29T07:22:04.497Z,86.2
2017-12-29T07:23:04.545Z,86.13
2017-12-29T07:24:04.522Z,86.23
2017-12-29T07:25:04.530Z,86.28
2017-12-29T07:26:04.504Z,86.27
2017-12-29T07:27:04.319Z,86.19
2017-12-29T07:28:03.358Z,86.21
2017-12-29T07:29:03.320Z,86.27
2017-12-29T07:30:03.349Z,86.23
2017-12-29T07:31:04.062Z,86.2
2017-12-29T07:32:03.920Z,86.22
2017-12-29T07:33:03.749Z,86.26
2017-12-29T07:34:03.898Z,86.18
2017-12-29T07:35:04.035Z,86.18
2017-12-29T07:36:04.034Z,85.96
2017-12-29T07:37:04.152Z,86.24
2017-12-29T07:38:03.333Z,86.07
2017-12-29T07:39:03.277Z,86.11
2017-12-29T07:40:03.639Z,86.03
2017-12-29T07:41:03.591Z,86.05
2017-12-29T07:42:03.547Z,85.98
2017-12-29T07:43:03.689Z,86
2017-12-29T07:44:03.584Z,86.12
2017-12-29T07:45:03.608Z,86.16
2017-12-29T07:46:03.778Z,86.15
2017-12-29T07:47:03.643Z,86.16
2017-12-29T07:48:03.694Z,85.96
2017-12-29T07:49:03.724Z,86.11
2017-12-29T07:50:03.756Z,86.05
2017-12-29T07:51:03.969Z,86.06
2017-12-29T07:52:04.020Z,86.13
2017-12-29T07:53:03.940Z,86.1
2017-12-29T07:54:03.753Z,86.14
2017-12-29T07:55:03.661Z,86.02
2017-12-29T07:56:03.768Z,86.15
2017-12-29T07:57:03.820Z,86.16
2017-12-29T07:58:03.760Z,86.12
2017-12-29T07:59:03.755Z,86.12
2017-12-29T08:00:03.720Z,86.1
2017-12-29T08:01:04.552Z,86.22
2017-12-29T08:02:04.532Z,86.29
2017-12-29T08:03:04.409Z,85.76
2017-12-29T08:04:04.415Z,86.06
2017-12-29T08:05:04.264Z,86.11
2017-12-29T08:06:04.382Z,86.12
2017-12-29T08:07:04.313Z,86.09
2017-12-29T08:08:04.237Z,85.63
2017-12-29T08:09:04.053Z,85.56
2017-12-29T08:10:04.107Z,85.87
2017-12-29T08:11:03.983Z,85.67
2017-12-29T08:12:03.753Z,85.67
2017-12-29T08:13:04.494Z,85.72
2017-12-29T08:14:04.601Z,85.75
2017-12-29T08:15:04.327Z,85.42
2017-12-29T08:16:04.372Z,85.26
2017-12-29T08:17:04.530Z,85.26
2017-12-29T08:18:04.547Z,85.16
2017-12-29T08:19:04.336Z,84.91
2017-12-29T08:20:04.286Z,84.64
2017-12-29T08:21:04.259Z,84.62
2017-12-29T08:22:04.387Z,84.81
2017-12-29T08:23:04.466Z,84.88
2017-12-29T08:24:04.454Z,84.66
2017-12-29T08:25:04.509Z,84.65
2017-12-29T08:26:04.646Z,84.87
2017-12-29T08:27:04.680Z,85.12
2017-12-29T08:28:03.686Z,85.02
2017-12-29T08:29:04.435Z,85.01
2017-12-29T08:30:04.422Z,84.98
2017-12-29T08:31:04.410Z,85.12
2017-12-29T08:32:04.314Z,85.05
2017-12-29T08:33:04.235Z,85.1
2017-12-29T08:34:04.225Z,84.9
2017-12-29T08:35:04.621Z,85.11
2017-12-29T08:36:03.707Z,84.95
2017-12-29T08:37:03.735Z,85.23
2017-12-29T08:38:03.954Z,85.21
2017-12-29T08:39:03.958Z,85.32
2017-12-29T08:40:04.022Z,85.19
2017-12-29T08:41:04.062Z,85.35
2017-12-29T08:42:04.018Z,85.38
2017-12-29T08:43:04.000Z,85.26
2017-12-29T08:44:04.053Z,85.25
2017-12-29T08:45:04.044Z,85.22
2017-12-29T08:46:04.169Z,85.21
2017-12-29T08:47:04.388Z,85.05
2017-12-29T08:48:04.989Z,85.15
2017-12-29T08:49:04.214Z,85.09
2017-12-29T08:50:04.192Z,84.9
2017-12-29T08:51:04.271Z,85.08
2017-12-29T08:52:04.322Z,85.05
2017-12-29T08:53:04.396Z,84.99
2017-12-29T08:54:04.753Z,85.11
2017-12-29T08:55:03.797Z,85.05
2017-12-29T08:56:03.709Z,85.21
2017-12-29T08:57:03.765Z,85.15
2017-12-29T08:58:03.864Z,84.98
2017-12-29T08:59:03.973Z,85.05
2017-12-29T09:00:04.147Z,85.02
2017-12-29T09:01:04.168Z,85.07
2017-12-29T09:02:04.096Z,85.02
2017-12-29T09:02:22.224Z,84.93
2017-12-29T09:03:22.429Z,85
2017-12-29T09:04:23.443Z,85.19
2017-12-29T09:05:22.628Z,85.07
2017-12-29T09:06:22.738Z,84.96
2017-12-29T09:07:22.146Z,84.94
2017-12-29T09:08:22.354Z,84.7
2017-12-29T09:09:22.602Z,84.61
2017-12-29T09:10:22.896Z,84.73
2017-12-29T09:11:22.284Z,84.63
2017-12-29T09:12:22.491Z,84.36
2017-12-29T09:13:22.713Z,84.67
2017-12-29T09:14:22.834Z,84.16
2017-12-29T09:15:22.378Z,84.43
2017-12-29T09:16:22.647Z,84.22
2017-12-29T09:17:22.842Z,84.53
2017-12-29T09:18:22.833Z,84.54
2017-12-29T09:19:23.004Z,84.24
2017-12-29T09:20:22.936Z,83.73
2017-12-29T09:21:22.104Z,84.02
2017-12-29T09:22:22.167Z,84.28
2017-12-29T09:23:22.724Z,84.31
2017-12-29T09:24:22.619Z,83.96
2017-12-29T09:25:22.560Z,83.35
2017-12-29T09:26:22.636Z,82.83
2017-12-29T09:27:22.866Z,83.26
2017-12-29T09:28:22.517Z,82.35
2017-12-29T09:29:22.410Z,82.08
2017-12-29T09:30:22.633Z,82.57
2017-12-29T09:31:22.684Z,83.15
2017-12-29T09:32:23.045Z,83.38
2017-12-29T09:33:22.358Z,82.57
2017-12-29T09:34:22.510Z,82.05
2017-12-29T09:35:22.540Z,82.69
2017-12-29T09:36:22.560Z,81.92
2017-12-29T09:37:22.514Z,82.55
2017-12-29T09:38:22.849Z,82.71
2017-12-29T09:39:22.878Z,82.83
2017-12-29T09:40:23.002Z,82.18
2017-12-29T09:41:22.310Z,82.59
2017-12-29T09:42:22.378Z,82.12
2017-12-29T09:43:22.512Z,82.63
2017-12-29T09:44:22.581Z,82.33
2017-12-29T09:45:22.787Z,82.61
2017-12-29T09:46:22.743Z,82.81
2017-12-29T09:47:22.987Z,82.53
2017-12-29T09:48:23.117Z,81.88
2017-12-29T09:49:22.158Z,82.56
2017-12-29T09:50:22.301Z,82.38
2017-12-29T09:51:22.251Z,82.56
2017-12-29T09:52:22.411Z,82.77
2017-12-29T09:53:22.595Z,83.05
2017-12-29T09:54:22.836Z,82.76
2017-12-29T09:55:22.944Z,82.86
2017-12-29T09:56:22.948Z,83.1
2017-12-29T09:57:23.035Z,82.94
2017-12-29T09:58:22.451Z,83.03
2017-12-29T09:59:22.550Z,83.08
2017-12-29T10:00:22.755Z,82.94
2017-12-29T10:01:22.627Z,82.57
2017-12-29T10:02:22.605Z,82.52
2017-12-29T10:03:22.716Z,82.65
2017-12-29T10:04:21.683Z,82.61
2017-12-29T10:05:22.606Z,83.11
2017-12-29T10:06:21.710Z,83.11
2017-12-29T10:07:21.733Z,82.62
2017-12-29T10:08:21.819Z,82.29
2017-12-29T10:09:21.877Z,83.07
2017-12-29T10:10:22.103Z,82.58
2017-12-29T10:11:22.188Z,82.71
2017-12-29T10:12:22.570Z,82.94
2017-12-29T10:13:22.550Z,83.06
2017-12-29T10:14:21.780Z,83
2017-12-29T10:15:21.622Z,83.03
2017-12-29T10:16:22.670Z,82.72
2017-12-29T10:17:21.669Z,82.33
2017-12-29T10:18:22.731Z,82.66
2017-12-29T10:19:22.068Z,82.59
2017-12-29T10:20:21.874Z,82.3
2017-12-29T10:21:21.977Z,81.29
2017-12-29T10:22:22.013Z,81.65
2017-12-29T10:23:21.790Z,81.98
2017-12-29T10:24:22.270Z,82.32
2017-12-29T10:25:22.382Z,81.82
2017-12-29T10:26:22.812Z,82.45
2017-12-29T10:27:23.731Z,82.2
2017-12-29T10:28:23.465Z,82.47
2017-12-29T10:29:22.660Z,82.62
2017-12-29T10:30:22.052Z,82.42
2017-12-29T10:31:23.185Z,82.64
2017-12-29T10:32:22.191Z,81.97
2017-12-29T10:33:24.863Z,81.99
2017-12-29T10:34:22.354Z,82.46
2017-12-29T10:35:22.992Z,82.19
2017-12-29T10:36:22.671Z,82.46
2017-12-29T10:37:22.532Z,82.59
2017-12-29T10:38:22.396Z,79.89
2017-12-29T10:39:23.072Z,81.15
2017-12-29T10:40:22.176Z,81.45
2017-12-29T10:41:23.041Z,81.12
2017-12-29T10:42:22.152Z,81.61
2017-12-29T10:43:22.178Z,81.37
2017-12-29T10:44:22.206Z,81.44
2017-12-29T10:45:22.982Z,81.19
2017-12-29T10:46:22.257Z,80.76
2017-12-29T10:47:23.269Z,80.65
2017-12-29T10:48:22.240Z,81.22
2017-12-29T10:49:22.209Z,81.16
2017-12-29T10:50:22.399Z,81.12
2017-12-29T10:51:22.275Z,81.47
2017-12-29T10:52:22.891Z,81.75
2017-12-29T10:53:22.911Z,80.43
2017-12-29T10:54:22.831Z,80.81
2017-12-29T10:55:22.901Z,80.34
2017-12-29T10:56:22.365Z,80.81
2017-12-29T10:57:22.203Z,78.93
2017-12-29T10:58:22.369Z,80
2017-12-29T10:59:22.459Z,79.3
2017-12-29T11:00:22.644Z,79.92
2017-12-29T11:01:24.428Z,78.49
2017-12-29T11:02:22.871Z,78.92
2017-12-29T11:03:22.982Z,78.08
2017-12-29T11:04:23.033Z,79.02
2017-12-29T11:05:22.782Z,78.4
2017-12-29T11:06:22.975Z,78.58
2017-12-29T11:07:23.210Z,79.04
2017-12-29T11:08:22.398Z,79.08
2017-12-29T11:09:22.504Z,77.69
2017-12-29T11:10:22.571Z,77.82
2017-12-29T11:11:22.599Z,78.1
2017-12-29T11:12:23.132Z,77.66
2017-12-29T11:13:22.514Z,76.56
2017-12-29T11:14:22.685Z,78.13
2017-12-29T11:15:22.903Z,77.84
2017-12-29T11:16:23.057Z,78.53
2017-12-29T11:17:23.025Z,78.64
2017-12-29T11:18:22.321Z,76.34
2017-12-29T11:19:22.414Z,76.4
2017-12-29T11:20:22.562Z,77.62
2017-12-29T11:21:22.723Z,77.91
2017-12-29T11:22:22.828Z,78.53
2017-12-29T11:23:22.826Z,78.63
2017-12-29T11:24:22.634Z,78.96
2017-12-29T11:25:22.585Z,79.09
2017-12-29T11:26:22.910Z,78.29
2017-12-29T11:27:22.990Z,78.52
2017-12-29T11:28:23.003Z,78.9
2017-12-29T11:29:23.056Z,76.88
2017-12-29T11:30:22.254Z,77.63
2017-12-29T11:31:22.310Z,75.49
2017-12-29T11:32:22.444Z,77.08
2017-12-29T11:33:22.325Z,78.02
2017-12-29T11:34:22.552Z,78.03
2017-12-29T11:35:22.651Z,77.18
2017-12-29T11:36:21.903Z,76.24
2017-12-29T11:37:22.174Z,76.65
2017-12-29T11:38:22.220Z,76.76
2017-12-29T11:39:22.254Z,77.65
2017-12-29T11:40:22.335Z,77.34
2017-12-29T11:41:22.425Z,77.25
2017-12-29T11:42:22.567Z,77.28
2017-12-29T11:43:22.588Z,77.36
2017-12-29T11:44:22.959Z,75.1
2017-12-29T11:45:22.371Z,75.69
2017-12-29T11:46:22.383Z,76.83
2017-12-29T11:47:22.641Z,76.31
2017-12-29T11:48:21.852Z,74.43
2017-12-29T11:49:22.448Z,74.28
2017-12-29T11:50:22.551Z,75.18
2017-12-29T11:51:22.469Z,76.43
2017-12-29T11:52:21.736Z,75.7
2017-12-29T11:53:21.918Z,73.62
2017-12-29T11:54:22.139Z,75.15
2017-12-29T11:55:22.466Z,75.94
2017-12-29T11:56:22.619Z,76.47
2017-12-29T11:57:22.401Z,74.59
2017-12-29T11:58:22.225Z,74.27
2017-12-29T11:59:22.496Z,73.39
2017-12-29T12:00:22.577Z,74.43
2017-12-29T12:01:22.431Z,74.83
2017-12-29T12:02:22.543Z,76.08
2017-12-29T12:03:22.636Z,76.73
2017-12-29T12:04:21.805Z,75.69
2017-12-29T12:05:21.827Z,74.32
2017-12-29T12:06:22.190Z,73.87
2017-12-29T12:07:22.351Z,75.45
2017-12-29T12:08:22.476Z,73.78
2017-12-29T12:09:22.414Z,73.34
2017-12-29T12:10:22.574Z,74.62
2017-12-29T12:11:22.902Z,73.77
2017-12-29T12:12:22.841Z,74.16
2017-12-29T12:13:22.791Z,75.45
2017-12-29T12:14:22.717Z,75.65
2017-12-29T12:15:22.689Z,75.69
2017-12-29T12:16:22.897Z,75.58
2017-12-29T12:17:22.918Z,76.24
2017-12-29T12:18:23.015Z,76.16
2017-12-29T12:19:22.764Z,74.2
2017-12-29T12:20:22.743Z,74.49
2017-12-29T12:21:23.002Z,74.58
2017-12-29T12:22:22.923Z,74.89
2017-12-29T12:23:23.007Z,73.38
2017-12-29T12:24:22.899Z,74.01
2017-12-29T12:25:22.685Z,75.3
2017-12-29T12:26:22.678Z,74.41
2017-12-29T12:27:22.617Z,74.89
2017-12-29T12:28:22.486Z,75.06
2017-12-29T12:29:22.472Z,74.28
2017-12-29T12:30:22.980Z,74.54
2017-12-29T12:31:23.076Z,72.58
2017-12-29T12:32:23.087Z,73.06
2017-12-29T12:33:23.065Z,74.33
2017-12-29T12:34:22.971Z,74.06
2017-12-29T12:35:23.034Z,74.33
2017-12-29T12:36:21.572Z,74.27
2017-12-29T12:37:22.862Z,74.91
2017-12-29T12:38:21.870Z,74.32
2017-12-29T12:39:22.203Z,74.66
2017-12-29T12:40:21.383Z,74.07
2017-12-29T12:41:22.348Z,71.97
2017-12-29T12:42:22.406Z,73.05
2017-12-29T12:43:22.314Z,74.51
2017-12-29T12:44:21.581Z,73.3
2017-12-29T12:45:21.726Z,73.13
2017-12-29T12:46:21.804Z,74.6
2017-12-29T12:47:21.904Z,73.75
2017-12-29T12:48:22.071Z,74.14
2017-12-29T12:49:22.493Z,72.75
2017-12-29T12:50:21.627Z,72.89
2017-12-29T12:51:21.664Z,71.26
2017-12-29T12:52:21.870Z,72.66
2017-12-29T12:53:21.879Z,73.66
2017-12-29T12:54:21.932Z,73.03